Skip Navigation LinksHome page > Weather > Current weather Skip Navigation Links

Current Weather

Phoenix Sky Harbor Intl, Phoenix, Ariz.

For information only: do not use for flight planning or navigation.
Latest weather
Observation time Wednesday, October 16, 2019 10:51 PM MST
Local time Wednesday, October 16, 2019 11:21 PM MST
Flight conditions Visual Meteorological Conditions
Winds
Wind direction East (100°)
Wind speed 6 mph
Visibility 10 mi.
Sky condition
Ceiling unlimited
Sky clear
Temperature 78°F
Dewpoint 36°F
Altimeter 29.77 in.Hg
Pressure change last 3 hours0.00 in.Hg
Pressure falling, then rising
Derived measurements
Relative humidity 22%
Heat index 78°F
Density altitude 2643 ft.
Sea-level pressure 29.72 in.Hg
Climate data
Temperature minimum, last 6 hours 78°F
Temperature maximum, last 6 hours 94°F
Remarks
Automated weather observing station with precipitation discriminator.
METAR KPHX 170551Z 10005KT 10SM CLR 26/02 A2977 RMK AO2 SLP063 T02560022 10344 20256 55000

Settings

Location code

InnerDrive.Weather 4.0.6770.0 Release CLR 4.0.30319.42000
Copyright ©2018 Inner Drive Technology. All rights reserved. Portions Copyright ©1986-2018 David Braverman.

Find weather

Site navigation


Skip Navigation Links

Place info

Page info

PayPal - The safer, easier way to pay online!

Return home.

Copyright ©2019 Inner Drive Technology. Purveyors of fine, hand-crafted computer software. Page printed 2019-10-17T06:21:19 UTC.